createdAt,value
2018-09-10T07:31:11.327Z,3.80
2018-09-10T07:32:12.811Z,3.80
2018-09-10T07:33:13.486Z,4.30
2018-09-10T07:34:17.248Z,4.00
2018-09-10T07:35:18.744Z,3.80
2018-09-10T07:36:19.413Z,4.00
2018-09-10T07:37:20.149Z,4.00
2018-09-10T07:38:20.841Z,3.70
2018-09-10T07:39:25.797Z,3.70
2018-09-10T07:40:26.543Z,3.70
2018-09-10T07:41:53.622Z,3.70
2018-09-10T07:42:57.961Z,3.70
2018-09-10T07:43:59.043Z,3.70
2018-09-10T07:44:59.753Z,3.70
2018-09-10T07:46:00.451Z,3.30
2018-09-10T07:47:01.148Z,3.90
2018-09-10T07:48:09.923Z,3.50
2018-09-10T07:49:11.715Z,3.60
2018-09-10T07:50:13.393Z,3.30
2018-09-10T07:51:19.583Z,3.30
2018-09-10T07:52:20.253Z,3.60
2018-09-10T07:53:24.497Z,3.30
2018-09-10T07:54:25.835Z,3.60
2018-09-10T07:55:26.601Z,3.50
2018-09-10T07:56:27.356Z,3.70
2018-09-10T07:57:28.079Z,3.50
2018-09-10T07:58:28.742Z,3.50
2018-09-10T07:59:29.568Z,3.30
2018-09-10T08:00:31.671Z,3.60
2018-09-10T08:01:38.158Z,3.30
2018-09-10T08:02:38.973Z,3.30
2018-09-10T08:03:40.011Z,3.50
2018-09-10T08:04:42.459Z,3.20
2018-09-10T08:05:44.245Z,3.30
2018-09-10T08:06:45.340Z,3.20
2018-09-10T08:07:47.684Z,3.50
2018-09-10T08:08:48.638Z,3.40
2018-09-10T08:09:49.432Z,3.30
2018-09-10T08:10:50.118Z,3.10
2018-09-10T08:11:50.954Z,3.40
2018-09-10T08:12:51.669Z,3.50
2018-09-10T08:13:56.584Z,3.10
2018-09-10T08:14:58.403Z,2.90
2018-09-10T08:15:59.206Z,2.70
2018-09-10T08:16:59.897Z,2.80
2018-09-10T08:18:00.594Z,2.90
2018-09-10T08:19:01.299Z,2.60
2018-09-10T08:20:02.016Z,2.70
2018-09-10T08:21:03.130Z,3.00
2018-09-10T08:22:03.955Z,2.40
2018-09-10T08:23:05.947Z,2.90
2018-09-10T08:24:12.130Z,2.90
2018-09-10T08:25:13.854Z,2.60
2018-09-10T08:26:15.547Z,2.80
2018-09-10T08:27:16.297Z,2.60
2018-09-10T08:28:17.040Z,2.70
2018-09-10T08:29:17.787Z,2.60
2018-09-10T08:30:18.749Z,2.70
2018-09-10T08:31:21.591Z,2.50
2018-09-10T08:32:23.373Z,2.50
2018-09-10T08:33:24.092Z,2.80
2018-09-10T08:34:25.676Z,2.90
2018-09-10T08:35:26.430Z,3.00
2018-09-10T08:36:27.700Z,3.00
2018-09-10T08:37:28.523Z,2.70
2018-09-10T08:38:29.476Z,3.00
2018-09-10T08:39:30.223Z,2.60
2018-09-10T08:40:30.942Z,3.00
2018-09-10T08:41:37.254Z,2.80
2018-09-10T08:42:38.091Z,2.60
2018-09-10T08:43:38.858Z,2.90
2018-09-10T08:44:50.766Z,3.10
2018-09-10T08:45:51.671Z,2.80
2018-09-10T08:46:52.780Z,3.00
2018-09-10T08:47:53.524Z,3.10
2018-09-10T08:48:54.377Z,2.80
2018-09-10T08:49:55.337Z,3.00
2018-09-10T08:50:56.813Z,2.90
2018-09-10T08:51:57.665Z,3.00
2018-09-10T08:53:00.449Z,2.70
2018-09-10T08:54:01.285Z,3.00
2018-09-10T08:55:02.263Z,2.80
2018-09-10T08:56:03.316Z,2.70
2018-09-10T08:57:42.422Z,2.90
2018-09-10T08:58:43.930Z,2.80
2018-09-10T08:59:44.912Z,2.70
2018-09-10T09:00:45.591Z,2.90
2018-09-10T09:01:46.406Z,2.50
2018-09-10T09:02:47.217Z,2.80
2018-09-10T09:03:58.775Z,2.90
2018-09-10T09:04:59.915Z,2.90
2018-09-10T09:06:00.642Z,3.00
2018-09-10T09:07:02.377Z,2.70
2018-09-10T09:08:03.402Z,2.70
2018-09-10T09:09:04.148Z,2.80
2018-09-10T09:10:04.878Z,2.80
2018-09-10T09:11:08.820Z,2.70
2018-09-10T09:12:09.545Z,2.70
2018-09-10T09:13:10.272Z,2.80
2018-09-10T09:14:11.827Z,3.10
2018-09-10T09:15:13.025Z,3.00
2018-09-10T09:16:13.702Z,2.80
2018-09-10T09:17:14.451Z,2.70
2018-09-10T09:18:15.132Z,2.70
2018-09-10T09:19:15.919Z,2.80
2018-09-10T09:20:16.710Z,2.90
2018-09-10T09:21:17.494Z,2.70
2018-09-10T09:22:18.244Z,2.60
2018-09-10T09:23:19.421Z,2.80
2018-09-10T09:24:20.762Z,2.50
2018-09-10T09:25:21.472Z,2.70
2018-09-10T09:26:24.283Z,2.80
2018-09-10T09:27:25.041Z,2.60
2018-09-10T09:28:26.360Z,2.70
2018-09-10T09:29:27.048Z,2.50
2018-09-10T09:30:28.367Z,2.50
2018-09-10T09:31:29.154Z,2.70
2018-09-10T09:32:29.832Z,2.70
2018-09-10T09:33:30.526Z,2.80
2018-09-10T09:34:31.261Z,2.50
2018-09-10T09:35:33.302Z,2.40
2018-09-10T09:36:34.041Z,2.80
2018-09-10T09:37:34.751Z,2.50
2018-09-10T09:38:35.540Z,2.60
2018-09-10T09:39:36.277Z,2.70
2018-09-10T09:40:36.973Z,2.70
2018-09-10T09:41:37.862Z,2.70
2018-09-10T09:42:38.584Z,2.60
2018-09-10T09:43:39.334Z,2.70
2018-09-10T09:44:40.081Z,2.50
2018-09-10T09:45:40.857Z,2.60
2018-09-10T09:46:42.054Z,2.70
2018-09-10T09:47:42.741Z,2.60
2018-09-10T09:48:43.514Z,2.80
2018-09-10T09:49:44.262Z,3.00
2018-09-10T09:50:44.993Z,2.70
2018-09-10T09:51:45.838Z,3.00
2018-09-10T09:52:46.565Z,2.70
2018-09-10T09:53:48.743Z,2.70
2018-09-10T09:54:49.572Z,2.60
2018-09-10T09:55:50.556Z,2.70
2018-09-10T09:56:51.283Z,2.80
2018-09-10T09:57:52.492Z,2.60
2018-09-10T09:59:53.576Z,2.60
2018-09-10T10:00:54.280Z,2.60
2018-09-10T10:01:57.355Z,2.40
2018-09-10T10:02:58.038Z,2.70
2018-09-10T10:03:58.915Z,2.60
2018-09-10T10:04:59.568Z,2.80
2018-09-10T10:06:00.312Z,2.70
2018-09-10T10:07:01.300Z,2.80
2018-09-10T10:08:02.054Z,2.60
2018-09-10T10:09:02.803Z,2.60
2018-09-10T10:10:03.479Z,2.60
2018-09-10T10:11:04.342Z,2.70
2018-09-10T10:12:05.091Z,2.50
2018-09-10T10:13:05.788Z,2.90
2018-09-10T10:14:06.476Z,2.70
2018-09-10T10:15:07.147Z,2.60
2018-09-10T10:16:07.896Z,2.40
2018-09-10T10:17:08.756Z,2.40
2018-09-10T10:18:09.500Z,2.40
2018-09-10T10:19:12.525Z,2.40
2018-09-10T10:20:13.289Z,2.40
2018-09-10T10:21:13.971Z,2.50
2018-09-10T10:22:14.771Z,2.70
2018-09-10T10:23:15.466Z,2.40
2018-09-10T10:24:16.131Z,2.40
2018-09-10T10:25:16.799Z,2.30
2018-09-10T10:26:17.577Z,2.50
2018-09-10T10:27:19.902Z,2.40
2018-09-10T10:28:21.046Z,2.30
2018-09-10T10:29:21.679Z,2.30
2018-09-10T10:30:22.404Z,2.30
2018-09-10T10:31:23.133Z,2.30
2018-09-10T10:32:24.029Z,2.10
2018-09-10T10:33:24.861Z,2.20
2018-09-10T10:34:26.460Z,2.10
2018-09-10T10:35:27.339Z,2.20
2018-09-10T10:36:28.210Z,2.30
2018-09-10T10:37:29.072Z,2.30
2018-09-10T10:38:29.783Z,2.40
2018-09-10T10:39:30.769Z,2.40
2018-09-10T10:40:31.572Z,2.30
2018-09-10T10:41:32.338Z,2.20
2018-09-10T10:42:34.297Z,2.20
2018-09-10T10:43:35.159Z,2.30
2018-09-10T10:44:35.876Z,2.40
2018-09-10T10:45:36.623Z,2.40
2018-09-10T10:46:38.106Z,2.30
2018-09-10T10:47:38.875Z,2.30
2018-09-10T10:48:39.609Z,2.20
2018-09-10T10:49:40.363Z,2.20
2018-09-10T10:50:45.958Z,2.20
2018-09-10T10:51:47.695Z,2.30
2018-09-10T10:52:49.211Z,2.00
2018-09-10T10:53:50.250Z,2.10
2018-09-10T10:54:51.066Z,2.20
2018-09-10T10:55:51.976Z,2.40
2018-09-10T10:56:52.755Z,2.00
2018-09-10T10:57:53.442Z,2.20
2018-09-10T10:58:57.100Z,2.10
2018-09-10T10:59:59.090Z,2.10
2018-09-10T11:00:59.912Z,1.90
2018-09-10T11:02:01.714Z,2.00
2018-09-10T11:03:02.657Z,2.20
2018-09-10T11:04:03.867Z,2.10
2018-09-10T11:05:04.768Z,2.10
2018-09-10T11:06:14.084Z,2.10
2018-09-10T11:07:14.915Z,2.20
2018-09-10T11:08:18.167Z,2.10
2018-09-10T11:09:28.445Z,2.20
2018-09-10T11:10:29.528Z,2.20
2018-09-10T11:11:30.784Z,2.00
2018-09-10T11:12:31.541Z,2.20
2018-09-10T11:13:52.164Z,2.30
2018-09-10T11:14:54.943Z,2.10
2018-09-10T11:15:55.946Z,2.20
2018-09-10T11:16:56.745Z,2.20
2018-09-10T11:18:01.215Z,2.30
2018-09-10T11:19:04.180Z,2.30
2018-09-10T11:20:05.048Z,2.10
2018-09-10T11:21:05.846Z,2.10
2018-09-10T11:22:06.657Z,2.40
2018-09-10T11:23:07.582Z,2.30
2018-09-10T11:24:08.529Z,2.30
2018-09-10T11:25:15.905Z,2.20
2018-09-10T11:26:16.653Z,2.10
2018-09-10T11:27:17.378Z,2.20
2018-09-10T11:28:18.096Z,2.40
2018-09-10T11:29:19.218Z,2.20
2018-09-10T11:30:20.084Z,2.50
2018-09-10T11:31:24.546Z,2.30
2018-09-10T11:32:39.830Z,2.30
2018-09-10T11:33:40.559Z,2.40
2018-09-10T11:34:43.453Z,2.10
2018-09-10T11:35:44.684Z,2.50
2018-09-10T11:36:45.373Z,2.40
2018-09-10T11:37:46.145Z,2.40
2018-09-10T11:38:46.862Z,2.20
2018-09-10T11:39:51.153Z,2.20
2018-09-10T11:40:53.603Z,2.20
2018-09-10T11:41:54.864Z,2.40
2018-09-10T11:42:56.456Z,2.20
2018-09-10T11:44:01.926Z,2.40
2018-09-10T11:45:02.964Z,2.30
2018-09-10T11:46:03.882Z,2.50
2018-09-10T11:47:07.749Z,2.30
2018-09-10T11:48:11.710Z,2.30
2018-09-10T11:49:17.626Z,2.30
2018-09-10T11:50:18.539Z,2.40
2018-09-10T11:51:19.351Z,2.30
2018-09-10T11:52:20.112Z,2.40
2018-09-10T11:53:20.859Z,2.40
2018-09-10T11:54:21.843Z,2.20
2018-09-10T11:55:22.717Z,2.40
2018-09-10T11:56:23.476Z,2.10
2018-09-10T11:57:53.033Z,2.20
2018-09-10T11:58:53.927Z,2.20
2018-09-10T11:59:54.880Z,2.20
2018-09-10T12:00:56.995Z,2.30
2018-09-10T12:01:59.118Z,2.40
2018-09-10T12:03:00.001Z,2.30
2018-09-10T12:04:00.950Z,2.50
2018-09-10T12:05:02.414Z,2.40
2018-09-10T12:06:03.391Z,2.50
2018-09-10T12:07:04.161Z,2.50
2018-09-10T12:08:04.992Z,2.50
2018-09-10T12:09:05.791Z,2.50
2018-09-10T12:10:07.518Z,2.30
2018-09-10T12:11:09.419Z,2.60
2018-09-10T12:12:12.755Z,2.50
2018-09-10T12:13:14.135Z,2.50
2018-09-10T12:14:15.257Z,2.40
2018-09-10T12:15:16.173Z,2.50
2018-09-10T12:16:17.029Z,2.60
2018-09-10T12:17:17.826Z,2.30
2018-09-10T12:18:22.164Z,2.40
2018-09-10T12:19:23.596Z,2.40
2018-09-10T12:20:26.450Z,2.40
2018-09-10T12:21:27.213Z,2.40
2018-09-10T12:22:33.147Z,2.30
2018-09-10T12:23:34.635Z,2.40
2018-09-10T12:24:35.357Z,2.30
2018-09-10T12:25:43.347Z,2.40
2018-09-10T12:26:47.267Z,2.50
2018-09-10T12:27:49.544Z,2.50
2018-09-10T12:28:50.569Z,2.40
2018-09-10T12:29:56.822Z,2.40
2018-09-10T12:30:57.549Z,2.50
2018-09-10T12:31:59.377Z,2.60
2018-09-10T12:33:09.660Z,2.80
2018-09-10T12:34:10.355Z,2.60
2018-09-10T12:35:19.800Z,2.60
2018-09-10T12:36:20.518Z,2.50
2018-09-10T12:37:21.251Z,2.60
2018-09-10T12:38:28.747Z,2.50
2018-09-10T12:39:49.630Z,2.40
2018-09-10T12:40:51.061Z,2.60
2018-09-10T12:41:52.425Z,2.40
2018-09-10T12:42:53.508Z,2.40
2018-09-10T12:43:54.319Z,2.40
2018-09-10T12:44:55.087Z,2.30
2018-09-10T12:45:55.835Z,2.30
2018-09-10T12:46:57.952Z,2.30
2018-09-10T12:47:59.114Z,2.30
2018-09-10T12:48:59.815Z,2.50
2018-09-10T12:50:05.952Z,5.50
2018-09-10T12:51:06.919Z,3.40
2018-09-10T12:52:07.750Z,2.60
2018-09-10T12:53:08.528Z,3.10
2018-09-10T12:54:09.280Z,2.90
2018-09-10T12:55:13.351Z,2.80
2018-09-10T12:56:14.805Z,2.80
2018-09-10T12:57:16.549Z,2.50
2018-09-10T12:58:17.345Z,2.40
2018-09-10T12:59:18.086Z,2.80
2018-09-10T13:00:18.901Z,2.10
2018-09-10T13:01:21.274Z,2.20
2018-09-10T13:02:33.395Z,2.40
2018-09-10T13:03:34.086Z,2.90
2018-09-10T13:04:34.841Z,2.30
2018-09-10T13:05:35.534Z,2.40
2018-09-10T13:06:36.266Z,2.80
2018-09-10T13:07:42.236Z,3.10
2018-09-10T13:08:42.989Z,2.40
2018-09-10T13:09:44.024Z,2.20
2018-09-10T13:10:44.977Z,2.70
2018-09-10T13:11:45.823Z,2.20
2018-09-10T13:12:46.569Z,2.20
2018-09-10T13:13:47.273Z,2.10
2018-09-10T13:14:48.022Z,2.30
2018-09-10T13:15:48.915Z,2.40
2018-09-10T13:16:49.675Z,2.60
2018-09-10T13:18:06.870Z,2.40
2018-09-10T13:19:14.363Z,2.40
2018-09-10T13:20:15.803Z,2.80
2018-09-10T13:22:04.170Z,2.10
2018-09-10T13:23:05.087Z,2.40
2018-09-10T13:24:06.104Z,2.40
2018-09-10T13:25:06.910Z,2.50
2018-09-10T13:26:07.633Z,2.60
2018-09-10T13:27:14.659Z,2.60
2018-09-10T13:28:26.191Z,2.40
2018-09-10T13:30:28.716Z,2.70
2018-09-10T13:31:32.573Z,2.60
2018-09-10T13:32:34.658Z,2.60
2018-09-10T13:33:51.840Z,3.10
2018-09-10T13:35:32.183Z,3.10
2018-09-10T13:36:50.156Z,2.90
2018-09-10T13:38:07.914Z,2.90
2018-09-10T13:39:08.971Z,2.80
2018-09-10T13:40:09.728Z,3.30
2018-09-10T13:41:10.658Z,2.40
2018-09-10T13:42:13.173Z,2.50
2018-09-10T13:43:13.970Z,2.60
2018-09-10T13:44:17.444Z,2.60
2018-09-10T13:45:18.253Z,2.50
2018-09-10T13:46:19.169Z,2.30
2018-09-10T13:47:19.859Z,2.30
2018-09-10T13:48:20.733Z,2.30
2018-09-10T13:49:21.773Z,2.50
2018-09-10T13:50:22.631Z,2.30
2018-09-10T13:51:23.417Z,2.40
2018-09-10T13:52:24.124Z,2.20
2018-09-10T13:55:32.248Z,2.20
2018-09-10T13:55:41.271Z,2.20
2018-09-10T13:56:43.484Z,2.40
2018-09-10T13:57:44.263Z,2.40
2018-09-10T13:58:45.239Z,2.40
2018-09-10T13:59:46.042Z,2.60
2018-09-10T14:00:46.913Z,2.50
2018-09-10T14:01:48.474Z,2.50
2018-09-10T14:02:49.199Z,2.50
2018-09-10T14:03:49.954Z,2.60
2018-09-10T14:04:52.936Z,2.10
2018-09-10T14:05:53.780Z,2.50
2018-09-10T14:06:54.623Z,2.40
2018-09-10T14:07:55.402Z,2.40
2018-09-10T14:08:56.365Z,2.40
2018-09-10T14:09:57.091Z,2.40
2018-09-10T14:11:04.968Z,2.70
2018-09-10T14:12:06.031Z,2.50
2018-09-10T14:13:06.841Z,2.60
2018-09-10T14:14:08.326Z,2.90
2018-09-10T14:15:09.150Z,2.40
2018-09-10T14:16:09.967Z,2.70
2018-09-10T14:17:13.454Z,2.60
2018-09-10T14:18:44.022Z,2.50
2018-09-10T14:19:44.983Z,2.50
2018-09-10T14:20:45.804Z,4.50
2018-09-10T14:21:49.093Z,2.80
2018-09-10T14:22:50.047Z,3.40
2018-09-10T14:23:50.814Z,2.70
2018-09-10T14:24:51.971Z,2.20
2018-09-10T14:26:05.065Z,6.50
2018-09-10T14:28:13.552Z,6.30
2018-09-10T14:29:16.981Z,7.30
2018-09-10T14:30:31.453Z,3.80
2018-09-10T14:31:43.596Z,6.80
2018-09-10T14:32:44.282Z,6.80
2018-09-10T14:33:45.055Z,5.40
2018-09-10T14:35:19.583Z,3.00
2018-09-10T14:36:23.711Z,12.80
2018-09-10T14:37:25.115Z,12.80
2018-09-10T14:38:25.937Z,6.90
2018-09-10T14:39:26.722Z,3.10
2018-09-10T14:40:30.207Z,3.90
2018-09-10T14:41:53.334Z,3.90
2018-09-10T14:43:04.843Z,3.40
2018-09-10T14:44:13.139Z,4.40
2018-09-10T14:45:14.570Z,3.50
2018-09-10T14:46:17.102Z,8.40
2018-09-10T14:47:18.948Z,2.70
2018-09-10T14:48:20.408Z,2.50
2018-09-10T14:49:34.273Z,3.40
2018-09-10T14:50:43.373Z,2.50
2018-09-10T14:51:44.754Z,2.50
2018-09-10T14:52:45.572Z,2.90
2018-09-10T14:53:46.399Z,2.50
2018-09-10T14:54:47.274Z,2.20
2018-09-10T14:55:49.663Z,2.30
2018-09-10T14:56:50.458Z,2.40
2018-09-10T14:58:06.166Z,2.60
2018-09-10T14:59:07.657Z,2.20
2018-09-10T15:00:08.868Z,2.30
2018-09-10T15:01:10.136Z,2.40
2018-09-10T15:02:14.046Z,2.60
2018-09-10T15:03:14.798Z,2.60
2018-09-10T15:04:16.673Z,2.30
2018-09-10T15:05:18.278Z,2.30
2018-09-10T15:06:52.889Z,2.40
2018-09-10T15:08:08.796Z,2.50
2018-09-10T15:09:17.009Z,2.30
2018-09-10T15:10:17.765Z,2.30
2018-09-10T15:11:18.529Z,2.30
2018-09-10T15:12:19.513Z,2.40
2018-09-10T15:13:46.900Z,2.50
2018-09-10T15:14:47.681Z,2.20
2018-09-10T15:15:59.296Z,2.10
2018-09-10T15:17:00.238Z,2.50
2018-09-10T15:18:01.275Z,2.40
2018-09-10T15:19:05.341Z,2.30
2018-09-10T15:20:19.000Z,2.40
2018-09-10T15:21:24.152Z,2.50
2018-09-10T15:22:24.914Z,2.20
2018-09-10T15:23:41.189Z,2.30
2018-09-10T15:25:43.537Z,2.30
2018-09-10T15:26:44.804Z,2.40
2018-09-10T15:28:08.937Z,2.30
2018-09-10T15:29:10.194Z,2.30
2018-09-10T15:30:11.814Z,2.60
2018-09-10T15:31:16.479Z,2.40
2018-09-10T15:32:18.325Z,2.30
2018-09-10T15:33:19.123Z,2.40
2018-09-10T15:34:19.838Z,2.20
2018-09-10T15:35:20.572Z,2.30
2018-09-10T15:36:21.436Z,2.60
2018-09-10T15:37:22.242Z,2.40
2018-09-10T15:39:09.566Z,2.10
2018-09-10T15:40:10.812Z,2.30
2018-09-10T15:41:11.554Z,2.60
2018-09-10T15:42:13.166Z,2.50
2018-09-10T15:43:14.742Z,2.30
2018-09-10T15:44:16.080Z,2.20
2018-09-10T15:45:17.255Z,2.30
2018-09-10T15:46:18.770Z,2.50
2018-09-10T15:47:19.487Z,2.50
2018-09-10T15:48:20.209Z,2.60
2018-09-10T15:49:23.783Z,2.40
2018-09-10T15:50:24.545Z,2.30
2018-09-10T15:51:35.931Z,2.40
2018-09-10T15:53:43.074Z,2.60
2018-09-10T15:54:43.783Z,2.40
2018-09-10T15:55:45.325Z,2.50
2018-09-10T15:56:46.046Z,2.60
2018-09-10T15:57:47.875Z,2.60
2018-09-10T15:58:48.725Z,2.50
2018-09-10T15:59:49.550Z,2.40
2018-09-10T16:00:50.809Z,2.30
2018-09-10T16:01:51.570Z,2.60
2018-09-10T16:03:05.970Z,2.40
2018-09-10T16:04:07.502Z,2.60
2018-09-10T16:05:08.324Z,2.60
2018-09-10T16:06:09.324Z,2.40
2018-09-10T16:07:13.564Z,2.20
2018-09-10T16:08:16.053Z,2.20
2018-09-10T16:09:16.878Z,2.60
2018-09-10T16:10:21.511Z,2.50
2018-09-10T16:11:22.635Z,2.60
2018-09-10T16:12:23.529Z,2.50
2018-09-10T16:13:32.305Z,2.50
2018-09-10T16:14:36.820Z,2.50
2018-09-10T16:15:39.669Z,2.20
2018-09-10T16:16:47.531Z,2.30
2018-09-10T16:17:48.850Z,2.30
2018-09-10T16:18:49.602Z,2.20
2018-09-10T16:21:19.796Z,2.40
2018-09-10T16:22:23.789Z,2.40
2018-09-10T16:23:43.826Z,2.40
2018-09-10T16:24:46.141Z,2.20
2018-09-10T16:26:05.139Z,2.30
2018-09-10T16:27:05.973Z,8.60
2018-09-10T16:28:06.773Z,3.00
2018-09-10T16:29:07.519Z,2.50
2018-09-10T16:30:08.369Z,2.40
2018-09-10T16:31:10.264Z,2.40
2018-09-10T16:32:14.654Z,2.30
2018-09-10T16:33:28.421Z,2.30
2018-09-10T16:34:45.924Z,2.10
2018-09-10T16:35:46.685Z,2.30
2018-09-10T16:36:54.461Z,2.30
2018-09-10T16:37:59.330Z,2.20
2018-09-10T16:39:00.173Z,2.20
2018-09-10T16:40:00.900Z,2.40
2018-09-10T16:41:01.707Z,2.10
2018-09-10T16:42:02.471Z,2.20
2018-09-10T16:43:03.355Z,2.00
2018-09-10T16:44:04.137Z,2.50
2018-09-10T16:45:06.022Z,2.40
2018-09-10T16:46:07.149Z,2.50
2018-09-10T16:47:07.876Z,2.40
2018-09-10T16:48:08.757Z,2.30
2018-09-10T16:49:12.773Z,2.60
2018-09-10T16:50:13.666Z,2.60
2018-09-10T16:53:10.067Z,2.50
2018-09-10T16:54:17.703Z,2.50
2018-09-10T16:55:46.678Z,2.40
2018-09-10T16:56:47.675Z,2.10
2018-09-10T16:57:55.045Z,2.50
2018-09-10T16:59:49.947Z,2.30
2018-09-10T17:01:17.342Z,2.30
2018-09-10T17:02:32.471Z,2.40
2018-09-10T17:03:36.557Z,2.40
2018-09-10T17:05:06.113Z,2.40
2018-09-10T17:06:13.209Z,2.50
2018-09-10T17:07:14.205Z,2.50
2018-09-10T17:08:43.780Z,2.30
2018-09-10T17:09:53.120Z,2.20
2018-09-10T17:11:00.407Z,2.50
2018-09-10T17:12:01.968Z,2.20
2018-09-10T17:13:02.852Z,2.20
2018-09-10T17:14:33.551Z,2.30
2018-09-10T17:15:37.144Z,2.30
2018-09-10T17:17:17.232Z,2.30
2018-09-10T17:18:19.545Z,2.40
2018-09-10T17:19:24.441Z,2.40
2018-09-10T17:22:35.531Z,2.50
2018-09-10T17:23:43.407Z,2.50
2018-09-10T17:24:44.388Z,2.10
2018-09-10T17:25:45.236Z,2.50
2018-09-10T17:27:04.174Z,2.40
2018-09-10T17:28:04.885Z,2.30
2018-09-10T17:29:47.423Z,2.30
2018-09-10T17:30:48.273Z,2.30
2018-09-10T17:31:48.990Z,2.40
2018-09-10T17:33:52.322Z,2.60
2018-09-10T17:34:55.437Z,2.50
2018-09-10T17:35:56.283Z,2.60
2018-09-10T17:36:58.304Z,2.50
2018-09-10T17:38:00.287Z,2.50
2018-09-10T17:39:01.587Z,2.80
2018-09-10T17:40:02.316Z,2.60
2018-09-10T17:41:03.555Z,2.70
2018-09-10T17:42:04.354Z,2.40
2018-09-10T17:43:06.202Z,2.60
2018-09-10T17:44:10.240Z,2.50
2018-09-10T17:45:12.710Z,2.50
2018-09-10T17:46:29.617Z,2.70
2018-09-10T17:47:30.465Z,2.70
2018-09-10T17:48:32.409Z,3.00
2018-09-10T17:49:52.595Z,2.90
2018-09-10T17:50:53.397Z,2.50
2018-09-10T17:52:08.051Z,2.60
2018-09-10T17:53:09.832Z,2.60
2018-09-10T17:54:13.488Z,2.60
2018-09-10T17:55:35.000Z,2.60
2018-09-10T17:56:35.703Z,2.60
2018-09-10T17:57:39.755Z,2.40
2018-09-10T17:58:40.565Z,2.40
2018-09-10T17:59:42.013Z,2.40
2018-09-10T18:00:44.082Z,3.50
2018-09-10T18:01:44.992Z,3.60
2018-09-10T18:03:06.341Z,3.40
2018-09-10T18:04:07.884Z,3.50
2018-09-10T18:05:15.952Z,3.50
2018-09-10T18:06:16.673Z,3.40
2018-09-10T18:07:24.040Z,3.10
2018-09-10T18:08:25.645Z,3.20
2018-09-10T18:09:27.391Z,3.10
